KLLQ

Monticello Municipal / Ellis Field Airport

Monticello, Arkansas, USA
METAR KLLQ 151908Z AUTO 04006KT 1 3/4SM BR OVC004 11/10 A2977 RMK AO2 T01110100
Observed Flight Rules
Feb-15 @ 19:08 UTC (13 minutes ago) Instrument Flight Rules
Wind Visibility Clouds Conditions
40° at 6 knots 1 3/4 miles
  • Overcast at 400' AGL
  • Mist
Temperatures Readings
Current 11°C / 52°F
Dewpoint 10°C / 50°F
Humidity 94%
Altimeter 29.77" Hg
Pressure 1008.12 hPa
Elevation 83
METAR KLLQ 151908Z AUTO 04006KT 1 3/4SM BR OVC004 11/10 A2977 RMK AO2 T01110100
Observed Flight Rules
Feb-15 @ 19:08 UTC
(13 minutes ago)
LIFR
Wind Visibility
40° at 6 knots 1 3/4 miles
Clouds
  • Overcast at 400' AGL
Conditions
  • Mist
Temperature Dewpoint
11°C / 52°F 10°C / 50°F
Humidity Altimeter Pressure
94% 29.77" Hg 1008.12 hPa